Terminal Aerodrome Forecast
Issued by NWS Topeka, KS

Home | Current Version | Previous Version | Text Only | Print | Product List | Glossary Off
Versions: 1 2 3 4 5 6 7 8 9 10 11 12

000
FTUS43 KTOP 211723
TAFTOP
TAF
KTOP 211723Z 2118/2218 05007KT P6SM OVC100
     FM220000 05013G21KT P6SM VCSH OVC070
     FM220500 02009KT 6SM -RA SCT030 OVC040
     FM220900 02009KT 6SM -RA SCT015 OVC030
     FM221200 02009KT P6SM OVC040
     FM221500 03011G20KT P6SM BKN050=

USA.gov is the U.S. government's official web portal to all federal, state and local government web resources and services.